sensor_id;sensor_type;location;lat;lon;timestamp;pressure;altitude;pressure_sealevel;temperature;humidity
74435;BME280;62867;52.038;29.256;2023-02-28T00:01:55;1035.7;;;0.8;58.9
74435;BME280;62867;52.038;29.256;2023-02-28T00:06:13;1035.7;;;0.8;58.3
74435;BME280;62867;52.038;29.256;2023-02-28T00:11:25;1035.6;;;0.8;58.7
74435;BME280;62867;52.038;29.256;2023-02-28T00:17:09;1035.6;;;0.9;58.6
74435;BME280;62867;52.038;29.256;2023-02-28T00:21:25;1035.6;;;0.9;58.9
74435;BME280;62867;52.038;29.256;2023-02-28T00:26:55;1035.6;;;0.9;58.6
74435;BME280;62867;52.038;29.256;2023-02-28T00:31:13;1035.6;;;0.9;58.8
74435;BME280;62867;52.038;29.256;2023-02-28T00:36:39;1035.6;;;0.8;58.8
74435;BME280;62867;52.038;29.256;2023-02-28T00:41:55;1035.6;;;0.8;58.2
74435;BME280;62867;52.038;29.256;2023-02-28T00:47:07;1035.6;;;0.8;58.8
74435;BME280;62867;52.038;29.256;2023-02-28T00:51:55;1035.6;;;0.8;58.8
74435;BME280;62867;52.038;29.256;2023-02-28T00:56:13;1035.6;;;0.8;58.9
74435;BME280;62867;52.038;29.256;2023-02-28T01:01:55;1035.6;;;0.8;59
74435;BME280;62867;52.038;29.256;2023-02-28T01:06:53;1035.6;;;0.8;58.9
74435;BME280;62867;52.038;29.256;2023-02-28T01:12:09;1035.6;;;0.8;58.7
74435;BME280;62867;52.038;29.256;2023-02-28T01:16:53;1035.6;;;0.8;58.9
74435;BME280;62867;52.038;29.256;2023-02-28T01:21:14;1035.6;;;0.8;59.1
74435;BME280;62867;52.038;29.256;2023-02-28T01:26:55;1035.7;;;0.8;59.3
74435;BME280;62867;52.038;29.256;2023-02-28T01:31:37;1035.7;;;0.8;59.2
74435;BME280;62867;52.038;29.256;2023-02-28T01:37:07;1035.7;;;0.8;58.8
74435;BME280;62867;52.038;29.256;2023-02-28T01:41:53;1035.7;;;0.8;59
74435;BME280;62867;52.038;29.256;2023-02-28T01:46:29;1035.7;;;0.7;59.2
74435;BME280;62867;52.038;29.256;2023-02-28T01:51:55;1035.7;;;0.6;59.6
74435;BME280;62867;52.038;29.256;2023-02-28T01:56:13;1035.7;;;0.6;59.3
74435;BME280;62867;52.038;29.256;2023-02-28T02:02:07;1035.7;;;0.6;59.1
74435;BME280;62867;52.038;29.256;2023-02-28T02:06:55;1035.6;;;0.6;60
74435;BME280;62867;52.038;29.256;2023-02-28T02:11:39;1035.6;;;0.6;59.5
74435;BME280;62867;52.038;29.256;2023-02-28T02:16:57;1035.7;;;0.7;59.7
74435;BME280;62867;52.038;29.256;2023-02-28T02:22:50;1035.7;;;0.7;59.4
74435;BME280;62867;52.038;29.256;2023-02-28T02:27:16;1035.7;;;0.7;59.9
74435;BME280;62867;52.038;29.256;2023-02-28T02:31:58;1035.7;;;0.7;59.6
74435;BME280;62867;52.038;29.256;2023-02-28T02:36:13;1035.7;;;0.6;59.7
74435;BME280;62867;52.038;29.256;2023-02-28T02:41:53;1035.7;;;0.6;59.3
74435;BME280;62867;52.038;29.256;2023-02-28T02:46:14;1035.7;;;0.6;59.7
74435;BME280;62867;52.038;29.256;2023-02-28T02:52:10;1035.7;;;0.5;60.1
74435;BME280;62867;52.038;29.256;2023-02-28T02:56:53;1035.7;;;0.5;60.1
74435;BME280;62867;52.038;29.256;2023-02-28T03:01:14;1035.8;;;0.6;60.5
74435;BME280;62867;52.038;29.256;2023-02-28T03:06:55;1035.8;;;0.6;60.2
74435;BME280;62867;52.038;29.256;2023-02-28T03:11:39;1035.9;;;0.6;60.3
74435;BME280;62867;52.038;29.256;2023-02-28T03:17:14;1035.9;;;0.6;60.4
74435;BME280;62867;52.038;29.256;2023-02-28T03:21:58;1035.9;;;0.6;60.2
74435;BME280;62867;52.038;29.256;2023-02-28T03:26:14;1036;;;0.6;60.1
74435;BME280;62867;52.038;29.256;2023-02-28T03:31:57;1036;;;0.6;60.2
74435;BME280;62867;52.038;29.256;2023-02-28T03:36:37;1036;;;0.6;60.3
74435;BME280;62867;52.038;29.256;2023-02-28T03:42:09;1036;;;0.6;60.3
74435;BME280;62867;52.038;29.256;2023-02-28T03:46:54;1036;;;0.5;59.7
74435;BME280;62867;52.038;29.256;2023-02-28T03:51:25;1036;;;0.4;59.6
74435;BME280;62867;52.038;29.256;2023-02-28T03:56:56;1036;;;0.3;60.3
74435;BME280;62867;52.038;29.256;2023-02-28T04:01:26;1036;;;0.3;60
74435;BME280;62867;52.038;29.256;2023-02-28T04:07:09;1036;;;0.3;60.3
74435;BME280;62867;52.038;29.256;2023-02-28T04:11:55;1036;;;0.3;60.3
74435;BME280;62867;52.038;29.256;2023-02-28T04:16:25;1036;;;0.3;60.5
74435;BME280;62867;52.038;29.256;2023-02-28T04:21:55;1036;;;0.4;60.3
74435;BME280;62867;52.038;29.256;2023-02-28T04:26:25;1036;;;0.4;60.5
74435;BME280;62867;52.038;29.256;2023-02-28T04:32:09;1036;;;0.4;60.9
74435;BME280;62867;52.038;29.256;2023-02-28T04:36:54;1035.9;;;0.3;60.8
74435;BME280;62867;52.038;29.256;2023-02-28T04:41:13;1035.9;;;0.3;60.7
74435;BME280;62867;52.038;29.256;2023-02-28T04:46:53;1036;;;0.2;60.6
74435;BME280;62867;52.038;29.256;2023-02-28T04:51:51;1036;;;0.2;60.8
74435;BME280;62867;52.038;29.256;2023-02-28T04:57:05;1036;;;0.1;60.9
74435;BME280;62867;52.038;29.256;2023-02-28T05:01:53;1036.1;;;0;61.4
74435;BME280;62867;52.038;29.256;2023-02-28T05:06:26;1036.1;;;0.1;61
74435;BME280;62867;52.038;29.256;2023-02-28T05:11:53;1036.1;;;0.1;61.3
74435;BME280;62867;52.038;29.256;2023-02-28T05:16:37;1036.1;;;0.1;61.4
74435;BME280;62867;52.038;29.256;2023-02-28T05:22:11;1036.1;;;0.2;61.2
74435;BME280;62867;52.038;29.256;2023-02-28T05:26:39;1036.1;;;0.1;61
74435;BME280;62867;52.038;29.256;2023-02-28T05:31:13;1036.1;;;0.1;60.9
74435;BME280;62867;52.038;29.256;2023-02-28T05:36:43;1036.1;;;0;60.9
74435;BME280;62867;52.038;29.256;2023-02-28T05:41:13;1036.2;;;-0.1;61.1
74435;BME280;62867;52.038;29.256;2023-02-28T05:47:07;1036.2;;;-0.1;61.3
74435;BME280;62867;52.038;29.256;2023-02-28T05:51:23;1036.2;;;-0.1;61.4
74435;BME280;62867;52.038;29.256;2023-02-28T05:56:25;1036.2;;;-0.1;61.7
74435;BME280;62867;52.038;29.256;2023-02-28T06:01:53;1036.2;;;0;61.1
74435;BME280;62867;52.038;29.256;2023-02-28T06:06:25;1036.1;;;0;61.2
74435;BME280;62867;52.038;29.256;2023-02-28T06:11:37;1036.2;;;0;61.2
74435;BME280;62867;52.038;29.256;2023-02-28T06:16:35;1036.2;;;0;61.1
74435;BME280;62867;52.038;29.256;2023-02-28T06:21:13;1036.1;;;0.1;60.9
74435;BME280;62867;52.038;29.256;2023-02-28T06:26:53;1036.1;;;0.2;60.4
74435;BME280;62867;52.038;29.256;2023-02-28T06:31:37;1036.1;;;0.2;60.4
74435;BME280;62867;52.038;29.256;2023-02-28T06:37:05;1036;;;0.3;60.2
74435;BME280;62867;52.038;29.256;2023-02-28T06:41:37;1036.1;;;0.4;60
74435;BME280;62867;52.038;29.256;2023-02-28T06:46:14;1036.1;;;0.4;60.2
74435;BME280;62867;52.038;29.256;2023-02-28T06:51:40;1036.2;;;0.5;60.3
74435;BME280;62867;52.038;29.256;2023-02-28T06:56:37;1036.2;;;0.5;59.6
74435;BME280;62867;52.038;29.256;2023-02-28T07:02:07;1036.2;;;0.6;59.2
74435;BME280;62867;52.038;29.256;2023-02-28T07:06:35;1036.2;;;0.7;59.1
74435;BME280;62867;52.038;29.256;2023-02-28T07:11:26;1036.2;;;0.7;58.8
74435;BME280;62867;52.038;29.256;2023-02-28T07:16:53;1036.1;;;0.8;58.9
74435;BME280;62867;52.038;29.256;2023-02-28T07:21:37;1036.1;;;0.9;58.6
74435;BME280;62867;52.038;29.256;2023-02-28T07:26:53;1036;;;1;58.7
74435;BME280;62867;52.038;29.256;2023-02-28T07:31:25;1036;;;1.1;58.4
74435;BME280;62867;52.038;29.256;2023-02-28T07:36:15;1036;;;1.2;58.4
74435;BME280;62867;52.038;29.256;2023-02-28T07:41:53;1036;;;1.2;57.2
74435;BME280;62867;52.038;29.256;2023-02-28T07:46:49;1036;;;1.2;57.1
74435;BME280;62867;52.038;29.256;2023-02-28T07:52:07;1036;;;1.2;57
74435;BME280;62867;52.038;29.256;2023-02-28T07:56:25;1036.1;;;1.1;56.9
74435;BME280;62867;52.038;29.256;2023-02-28T08:01:23;1036;;;1.2;56.6
74435;BME280;62867;52.038;29.256;2023-02-28T08:06:53;1036;;;1.5;56.5
74435;BME280;62867;52.038;29.256;2023-02-28T08:11:35;1036;;;1.7;55.8
74435;BME280;62867;52.038;29.256;2023-02-28T08:17:03;1036;;;1.8;55.4
74435;BME280;62867;52.038;29.256;2023-02-28T08:21:37;1036;;;2;55.4
74435;BME280;62867;52.038;29.256;2023-02-28T08:26:13;1036;;;2.1;55.2
74435;BME280;62867;52.038;29.256;2023-02-28T08:31:51;1036;;;2.2;54.5
74435;BME280;62867;52.038;29.256;2023-02-28T08:36:13;1035.9;;;2.2;54.3
74435;BME280;62867;52.038;29.256;2023-02-28T08:42:05;1036;;;2.2;53.8
74435;BME280;62867;52.038;29.256;2023-02-28T08:46:23;1036;;;2.2;53.4
74435;BME280;62867;52.038;29.256;2023-02-28T08:51:25;1035.9;;;2.2;53
74435;BME280;62867;52.038;29.256;2023-02-28T08:56:38;1035.9;;;2.3;53.1
74435;BME280;62867;52.038;29.256;2023-02-28T09:01:14;1035.8;;;2.6;53.4
74435;BME280;62867;52.038;29.256;2023-02-28T09:07:05;1035.7;;;2.7;53
74435;BME280;62867;52.038;29.256;2023-02-28T09:11:13;1035.7;;;2.8;52.7
74435;BME280;62867;52.038;29.256;2023-02-28T09:16:35;1035.8;;;2.9;52.4
74435;BME280;62867;52.038;29.256;2023-02-28T09:21:51;1035.8;;;3.1;52.2
74435;BME280;62867;52.038;29.256;2023-02-28T09:26:26;1035.8;;;3.2;52.1
74435;BME280;62867;52.038;29.256;2023-02-28T09:32:05;1035.7;;;3.5;51.3
74435;BME280;62867;52.038;29.256;2023-02-28T09:36:13;1035.7;;;3.7;50.7
74435;BME280;62867;52.038;29.256;2023-02-28T09:41:26;1035.7;;;3.7;50.4
74435;BME280;62867;52.038;29.256;2023-02-28T09:46:17;1035.6;;;3.6;49.8
74435;BME280;62867;52.038;29.256;2023-02-28T09:51:27;1035.5;;;3.5;50.3
74435;BME280;62867;52.038;29.256;2023-02-28T09:57:06;1035.5;;;3.4;50.3
74435;BME280;62867;52.038;29.256;2023-02-28T10:01:39;1035.4;;;3.6;50
74435;BME280;62867;52.038;29.256;2023-02-28T10:06:14;1035.4;;;3.8;50
74435;BME280;62867;52.038;29.256;2023-02-28T10:11:54;1035.3;;;3.9;50.4
74435;BME280;62867;52.038;29.256;2023-02-28T10:16:38;1035.3;;;4;50
74435;BME280;62867;52.038;29.256;2023-02-28T10:22:08;1035.3;;;4.1;49.8
74435;BME280;62867;52.038;29.256;2023-02-28T10:26:35;1035.2;;;4.4;49.8
74435;BME280;62867;52.038;29.256;2023-02-28T10:31:25;1035.1;;;4.6;49
74435;BME280;62867;52.038;29.256;2023-02-28T10:36:51;1035;;;4.8;48.4
74435;BME280;62867;52.038;29.256;2023-02-28T10:41:14;1034.9;;;4.9;47.2
74435;BME280;62867;52.038;29.256;2023-02-28T10:47:05;1034.9;;;5;47
74435;BME280;62867;52.038;29.256;2023-02-28T10:51:36;1034.9;;;5.1;47
74435;BME280;62867;52.038;29.256;2023-02-28T10:57:05;1034.8;;;5.3;46.8
74435;BME280;62867;52.038;29.256;2023-02-28T11:01:51;1034.8;;;5.4;46
74435;BME280;62867;52.038;29.256;2023-02-28T11:06:24;1034.7;;;5.5;46.3
74435;BME280;62867;52.038;29.256;2023-02-28T11:12:04;1034.6;;;5.5;46.6
74435;BME280;62867;52.038;29.256;2023-02-28T11:16:36;1034.6;;;5.8;46.1
74435;BME280;62867;52.038;29.256;2023-02-28T11:21:36;1034.5;;;6;45.5
74435;BME280;62867;52.038;29.256;2023-02-28T11:26:49;1034.5;;;6.3;45.4
74435;BME280;62867;52.038;29.256;2023-02-28T11:31:15;1034.4;;;6.6;44.8
74435;BME280;62867;52.038;29.256;2023-02-28T11:37:09;1034.3;;;6.7;43.8
74435;BME280;62867;52.038;29.256;2023-02-28T11:41:53;1034.2;;;6.8;43.6
74435;BME280;62867;52.038;29.256;2023-02-28T11:46:54;1034.2;;;7.1;43.1
74435;BME280;62867;52.038;29.256;2023-02-28T11:51:52;1034.1;;;7.3;42.2
74435;BME280;62867;52.038;29.256;2023-02-28T11:56:14;1034.1;;;7.6;41.1
74435;BME280;62867;52.038;29.256;2023-02-28T12:02:13;1034.1;;;7.9;40.3
74435;BME280;62867;52.038;29.256;2023-02-28T12:06:35;1034;;;8.1;40.4
74435;BME280;62867;52.038;29.256;2023-02-28T12:11:40;1034;;;8.2;40.3
74435;BME280;62867;52.038;29.256;2023-02-28T12:16:56;1033.9;;;9.3;39.1
74435;BME280;62867;52.038;29.256;2023-02-28T12:21:15;1033.8;;;10.5;38
74435;BME280;62867;52.038;29.256;2023-02-28T12:27:05;1033.8;;;10.4;38.2
74435;BME280;62867;52.038;29.256;2023-02-28T12:31:38;1033.8;;;9.6;37.9
74435;BME280;62867;52.038;29.256;2023-02-28T12:36:14;1033.7;;;8.6;38.6
74435;BME280;62867;52.038;29.256;2023-02-28T12:41:54;1033.6;;;8;39.4
74435;BME280;62867;52.038;29.256;2023-02-28T12:46:14;1033.5;;;7.8;39.4
74435;BME280;62867;52.038;29.256;2023-02-28T12:51:41;1033.5;;;8.1;39.6
74435;BME280;62867;52.038;29.256;2023-02-28T12:56:15;1033.4;;;8.1;39.4
74435;BME280;62867;52.038;29.256;2023-02-28T13:01:58;1033.4;;;8.1;39.3
74435;BME280;62867;52.038;29.256;2023-02-28T13:07:12;1033.3;;;7.8;39.7
74435;BME280;62867;52.038;29.256;2023-02-28T13:11:40;1033.3;;;7.1;40.9
74435;BME280;62867;52.038;29.256;2023-02-28T13:16:56;1033.2;;;6.3;41.9
74435;BME280;62867;52.038;29.256;2023-02-28T13:21:41;1033.1;;;5.6;42.8
74435;BME280;62867;52.038;29.256;2023-02-28T13:27:19;1033;;;5.1;43.4
74435;BME280;62867;52.038;29.256;2023-02-28T13:32:39;1032.9;;;4.7;44.4
74435;BME280;62867;52.038;29.256;2023-02-28T13:36:27;1032.8;;;4.2;45.6
74435;BME280;62867;52.038;29.256;2023-02-28T13:41:55;1032.8;;;3.9;46.2
74435;BME280;62867;52.038;29.256;2023-02-28T13:52:02;1032.7;;;3.5;47.7
74435;BME280;62867;52.038;29.256;2023-02-28T13:57:06;1032.6;;;3.4;48
74435;BME280;62867;52.038;29.256;2023-02-28T14:01:31;1032.7;;;3.3;48.6
74435;BME280;62867;52.038;29.256;2023-02-28T14:06:55;1032.7;;;3.2;48.8
74435;BME280;62867;52.038;29.256;2023-02-28T14:11:43;1032.7;;;3.1;48.6
74435;BME280;62867;52.038;29.256;2023-02-28T14:16:55;1032.6;;;3.1;48.8
74435;BME280;62867;52.038;29.256;2023-02-28T14:21:43;1032.7;;;3;49.3
74435;BME280;62867;52.038;29.256;2023-02-28T14:26:17;1032.7;;;3;49.4
74435;BME280;62867;52.038;29.256;2023-02-28T14:31:54;1032.6;;;2.9;49.6
74435;BME280;62867;52.038;29.256;2023-02-28T14:36:37;1032.6;;;2.8;50.2
74435;BME280;62867;52.038;29.256;2023-02-28T14:41:53;1032.5;;;2.7;51
74435;BME280;62867;52.038;29.256;2023-02-28T14:47:11;1032.3;;;2.7;51.1
74435;BME280;62867;52.038;29.256;2023-02-28T14:51:25;1032.2;;;2.6;51.8
74435;BME280;62867;52.038;29.256;2023-02-28T14:56:20;1032.2;;;2.6;51.8
74435;BME280;62867;52.038;29.256;2023-02-28T15:01:35;1032.1;;;2.5;51.9
74435;BME280;62867;52.038;29.256;2023-02-28T15:07:06;1032;;;2.5;52
74435;BME280;62867;52.038;29.256;2023-02-28T15:12:07;1031.9;;;2.5;52.2
74435;BME280;62867;52.038;29.256;2023-02-28T15:16:13;1031.8;;;2.4;52.2
74435;BME280;62867;52.038;29.256;2023-02-28T15:21:56;1031.8;;;2.4;52.9
74435;BME280;62867;52.038;29.256;2023-02-28T15:26:13;1031.9;;;2.3;52.8
74435;BME280;62867;52.038;29.256;2023-02-28T15:31:56;1032;;;2.3;52.8
74435;BME280;62867;52.038;29.256;2023-02-28T15:37:06;1031.9;;;2.2;53.1
74435;BME280;62867;52.038;29.256;2023-02-28T15:41:21;1031.9;;;2;54.3
74435;BME280;62867;52.038;29.256;2023-02-28T15:46:57;1032;;;1.9;55.2
74435;BME280;62867;52.038;29.256;2023-02-28T15:51:24;1032;;;1.8;54.7
74435;BME280;62867;52.038;29.256;2023-02-28T15:56:54;1032;;;1.7;55.7
74435;BME280;62867;52.038;29.256;2023-02-28T16:02:14;1032;;;1.6;55.7
74435;BME280;62867;52.038;29.256;2023-02-28T16:07:00;1031.9;;;1.6;55.6
74435;BME280;62867;52.038;29.256;2023-02-28T16:11:40;1032;;;1.5;56
74435;BME280;62867;52.038;29.256;2023-02-28T16:16:41;1031.9;;;1.5;56.2
74435;BME280;62867;52.038;29.256;2023-02-28T16:21:55;1031.8;;;1.5;56.5
74435;BME280;62867;52.038;29.256;2023-02-28T16:27:06;1031.8;;;1.4;56.5
74435;BME280;62867;52.038;29.256;2023-02-28T16:31:13;1031.8;;;1.4;56.9
74435;BME280;62867;52.038;29.256;2023-02-28T16:36:53;1031.7;;;1.3;57.1
74435;BME280;62867;52.038;29.256;2023-02-28T16:41:35;1031.6;;;1.3;57.2
74435;BME280;62867;52.038;29.256;2023-02-28T16:46:55;1031.5;;;1.3;57.8
74435;BME280;62867;52.038;29.256;2023-02-28T16:52:05;1031.4;;;1.2;57.6
74435;BME280;62867;52.038;29.256;2023-02-28T16:56:14;1031.4;;;1.2;57.7
74435;BME280;62867;52.038;29.256;2023-02-28T17:01:55;1031.5;;;1.3;57.9
74435;BME280;62867;52.038;29.256;2023-02-28T17:06:37;1031.6;;;1.3;58.1
74435;BME280;62867;52.038;29.256;2023-02-28T17:11:55;1031.7;;;1.3;58.1
74435;BME280;62867;52.038;29.256;2023-02-28T17:16:41;1031.6;;;1.3;57.9
74435;BME280;62867;52.038;29.256;2023-02-28T17:21:27;1031.5;;;1.3;57.8
74435;BME280;62867;52.038;29.256;2023-02-28T17:26:41;1031.5;;;1.3;57.6
74435;BME280;62867;52.038;29.256;2023-02-28T17:31:51;1031.5;;;1.3;58.2
74435;BME280;62867;52.038;29.256;2023-02-28T17:36:51;1031.4;;;1.3;58.2
74435;BME280;62867;52.038;29.256;2023-02-28T17:41:41;1031.4;;;1.2;58.2
74435;BME280;62867;52.038;29.256;2023-02-28T17:46:54;1031.4;;;1.2;58.3
74435;BME280;62867;52.038;29.256;2023-02-28T17:51:27;1031.3;;;1.2;58.4
74435;BME280;62867;52.038;29.256;2023-02-28T17:56:51;1031.4;;;1.2;58.9
74435;BME280;62867;52.038;29.256;2023-02-28T18:02:05;1031.4;;;1.2;58.4
74435;BME280;62867;52.038;29.256;2023-02-28T18:06:40;1031.4;;;1.2;58.4
74435;BME280;62867;52.038;29.256;2023-02-28T18:11:25;1031.4;;;1.1;58.2
74435;BME280;62867;52.038;29.256;2023-02-28T18:16:41;1031.3;;;1.2;58.1
74435;BME280;62867;52.038;29.256;2023-02-28T18:21:50;1031.4;;;1.1;58.4
74435;BME280;62867;52.038;29.256;2023-02-28T18:27:05;1031.4;;;1.2;58.4
74435;BME280;62867;52.038;29.256;2023-02-28T18:31:41;1031.3;;;1.1;58.5
74435;BME280;62867;52.038;29.256;2023-02-28T18:36:14;1031.2;;;1.1;58.7
74435;BME280;62867;52.038;29.256;2023-02-28T18:41:13;1031.1;;;1.2;58.8
74435;BME280;62867;52.038;29.256;2023-02-28T18:46:51;1031.1;;;1.2;58.8
74435;BME280;62867;52.038;29.256;2023-02-28T18:52:07;1031.1;;;1.1;59.1
74435;BME280;62867;52.038;29.256;2023-02-28T18:56:42;1031.1;;;1.2;59.1
74435;BME280;62867;52.038;29.256;2023-02-28T19:01:26;1031;;;1.2;59.1
74435;BME280;62867;52.038;29.256;2023-02-28T19:06:29;1030.9;;;1.2;58.9
74435;BME280;62867;52.038;29.256;2023-02-28T19:11:51;1030.9;;;1.3;58.5
74435;BME280;62867;52.038;29.256;2023-02-28T19:17:07;1030.8;;;1.3;58.3
74435;BME280;62867;52.038;29.256;2023-02-28T19:21:28;1030.8;;;1.3;58.3
74435;BME280;62867;52.038;29.256;2023-02-28T19:26:39;1030.8;;;1.3;58.4
74435;BME280;62867;52.038;29.256;2023-02-28T19:31:41;1030.8;;;1.3;58.3
74435;BME280;62867;52.038;29.256;2023-02-28T19:36:52;1030.8;;;1.3;58.5
74435;BME280;62867;52.038;29.256;2023-02-28T19:42:07;1030.7;;;1.3;58.5
74435;BME280;62867;52.038;29.256;2023-02-28T19:46:13;1030.8;;;1.3;59.1
74435;BME280;62867;52.038;29.256;2023-02-28T19:51:27;1030.7;;;1.2;59
74435;BME280;62867;52.038;29.256;2023-02-28T19:56:53;1030.6;;;1.2;59.4
74435;BME280;62867;52.038;29.256;2023-02-28T20:01:49;1030.6;;;1.2;59.7
74435;BME280;62867;52.038;29.256;2023-02-28T20:07:07;1030.5;;;1.2;59.5
74435;BME280;62867;52.038;29.256;2023-02-28T20:11:41;1030.5;;;1.2;59.5
74435;BME280;62867;52.038;29.256;2023-02-28T20:16:27;1030.4;;;1.2;59.7
74435;BME280;62867;52.038;29.256;2023-02-28T20:21:39;1030.2;;;1.2;59.7
74435;BME280;62867;52.038;29.256;2023-02-28T20:26:27;1030.2;;;1.2;59.9
74435;BME280;62867;52.038;29.256;2023-02-28T20:32:07;1030.1;;;1.2;60
74435;BME280;62867;52.038;29.256;2023-02-28T20:36:13;1030.1;;;1.1;60.5
74435;BME280;62867;52.038;29.256;2023-02-28T20:41:13;1030;;;1.1;61
74435;BME280;62867;52.038;29.256;2023-02-28T20:46:41;1029.9;;;1.1;60.7
74435;BME280;62867;52.038;29.256;2023-02-28T20:51:51;1029.9;;;1.1;60.7
74435;BME280;62867;52.038;29.256;2023-02-28T20:57:05;1029.8;;;1.1;60.7
74435;BME280;62867;52.038;29.256;2023-02-28T21:01:41;1029.7;;;1.1;60.8
74435;BME280;62867;52.038;29.256;2023-02-28T21:06:13;1029.6;;;1.1;60.7
74435;BME280;62867;52.038;29.256;2023-02-28T21:11:39;1029.4;;;1.2;60.5
74435;BME280;62867;52.038;29.256;2023-02-28T21:16:37;1029.3;;;1.1;60.5
74435;BME280;62867;52.038;29.256;2023-02-28T21:22:07;1029.4;;;1.1;60.4
74435;BME280;62867;52.038;29.256;2023-02-28T21:26:51;1029.4;;;1.1;60.3
74435;BME280;62867;52.038;29.256;2023-02-28T21:31:28;1029.3;;;1.1;60.2
74435;BME280;62867;52.038;29.256;2023-02-28T21:36:40;1029.3;;;1.1;60.5
74435;BME280;62867;52.038;29.256;2023-02-28T21:41:37;1029.2;;;1.1;60.8
74435;BME280;62867;52.038;29.256;2023-02-28T21:47:05;1029.2;;;1;60.7
74435;BME280;62867;52.038;29.256;2023-02-28T21:51:39;1029.2;;;1;60.9
74435;BME280;62867;52.038;29.256;2023-02-28T21:56:28;1029.1;;;1;60.5
74435;BME280;62867;52.038;29.256;2023-02-28T22:01:14;1029.1;;;1;60.4
74435;BME280;62867;52.038;29.256;2023-02-28T22:06:52;1029.1;;;1.1;60.6
74435;BME280;62867;52.038;29.256;2023-02-28T22:12:07;1029.1;;;1.1;60.3
74435;BME280;62867;52.038;29.256;2023-02-28T22:16:49;1029.1;;;1.1;60.3
74435;BME280;62867;52.038;29.256;2023-02-28T22:21:27;1029.1;;;1.1;60.3
74435;BME280;62867;52.038;29.256;2023-02-28T22:26:41;1029.1;;;1.1;60.2
74435;BME280;62867;52.038;29.256;2023-02-28T22:31:51;1029.2;;;1.1;60.6
74435;BME280;62867;52.038;29.256;2023-02-28T22:37:07;1029.1;;;1.1;60.5
74435;BME280;62867;52.038;29.256;2023-02-28T22:41:49;1029;;;1;60.9
74435;BME280;62867;52.038;29.256;2023-02-28T22:46:13;1028.9;;;1;60.8
74435;BME280;62867;52.038;29.256;2023-02-28T22:51:41;1029;;;1;60.9
74435;BME280;62867;52.038;29.256;2023-02-28T22:56:49;1029.1;;;1;61
74435;BME280;62867;52.038;29.256;2023-02-28T23:02:07;1029.1;;;1;61.1
74435;BME280;62867;52.038;29.256;2023-02-28T23:06:42;1029;;;1;61
74435;BME280;62867;52.038;29.256;2023-02-28T23:11:28;1029;;;1.1;61.4
74435;BME280;62867;52.038;29.256;2023-02-28T23:16:52;1029.1;;;1.1;61.2
74435;BME280;62867;52.038;29.256;2023-02-28T23:21:37;1029.2;;;1.3;61.1
74435;BME280;62867;52.038;29.256;2023-02-28T23:27:04;1029.1;;;1.4;60.9
74435;BME280;62867;52.038;29.256;2023-02-28T23:32:01;1029.2;;;1.4;60.9
74435;BME280;62867;52.038;29.256;2023-02-28T23:36:14;1029.1;;;1.3;60.7
74435;BME280;62867;52.038;29.256;2023-02-28T23:41:47;1029.1;;;1.3;60.8
74435;BME280;62867;52.038;29.256;2023-02-28T23:46:50;1029.1;;;1.3;61.1
74435;BME280;62867;52.038;29.256;2023-02-28T23:52:03;1029.1;;;1.4;60.5
74435;BME280;62867;52.038;29.256;2023-02-28T23:56:47;1029;;;1.5;60.4
